»·PEaware :: SWA4901 KSMF-KBUR

SWA4901 :: KSMF-KBUR

FLIGHT INFORMATION

Flight Status: Arrived
Operator:
Southwest Airlines
More flights by this operator :: More flights under this callsign
Pilot: Anonymous 12234 (12234)
Aircraft: BOEING 737-200
(B732)
More flights by this aircraft type
Origin: KSMF Sacramento Intl
United States
Destination: KBUR Bob Hope-Burbank
United States
More flights between these airports :: More routes between these airports
Route: SAC LIN J189 AVE FERN7
File this flight plan on PilotEdge
Remarks:
Altitude:
(Current/Filed)
29,000ft
Speed:
(Current/Filed)
429kts
Departed: 08-Feb-19 07:30 PM
Arrived: 08-Feb-19 08:30 PM
Distance/Time
Traveled:
312nm/1:00
Distance/Time
To Go:
Arrived

Flight Plot

Page will automatically refresh every two minutes.

Flight plan parsing failed; only flown route is shown


Map Options




Map Legend


Flown Route
Filed Route
Departure Airport
Arrival Airport
Navaid (VOR, NDB)
Fix

Horizontal Profiles

Position Reports

Time Latitude Longitude Heading Altitude Ground
Speed
08-Feb-19 19:05 38.696232 -121.595111 151 31ft 0kts
08-Feb-19 19:06 38.696232 -121.595111 151 31ft 0kts
08-Feb-19 19:06 38.696232 -121.595111 151 31ft 0kts
08-Feb-19 19:07 38.696232 -121.595111 151 31ft 0kts
08-Feb-19 19:09 38.696232 -121.595111 151 31ft 0kts
08-Feb-19 19:09 38.696232 -121.595111 151 31ft 0kts
08-Feb-19 19:10 38.696232 -121.595111 151 31ft 0kts
08-Feb-19 19:11 38.696232 -121.595111 151 31ft 0kts
08-Feb-19 19:12 38.696232 -121.595111 151 31ft 0kts
08-Feb-19 19:13 38.696232 -121.595111 151 31ft 0kts
08-Feb-19 19:14 38.696232 -121.595111 151 31ft 0kts
08-Feb-19 19:15 38.696232 -121.595111 151 31ft 0kts
08-Feb-19 19:16 38.696232 -121.595111 151 31ft 0kts
08-Feb-19 19:17 38.696232 -121.595111 151 31ft 0kts
08-Feb-19 19:18 38.696232 -121.595111 151 31ft 0kts
08-Feb-19 19:19 38.696317 -121.595171 151 31ft 2kts
08-Feb-19 19:20 38.696873 -121.595244 222 31ft 2kts
08-Feb-19 19:21 38.696986 -121.594865 270 31ft 0kts
08-Feb-19 19:22 38.696986 -121.594866 270 31ft 0kts
08-Feb-19 19:23 38.696986 -121.594866 270 31ft 0kts
08-Feb-19 19:24 38.696995 -121.596034 270 31ft 13kts
08-Feb-19 19:25 38.694893 -121.598683 180 31ft 19kts
08-Feb-19 19:26 38.689254 -121.598778 181 31ft 21kts
08-Feb-19 19:27 38.683906 -121.599116 242 31ft 12kts
08-Feb-19 19:28 38.683843 -121.599942 270 31ft 0kts
08-Feb-19 19:29 38.688160 -121.601567 0 31ft 84kts
08-Feb-19 19:30 38.730700 -121.599135 0 1968ft 197kts
08-Feb-19 19:31 38.794308 -121.584868 52 4937ft 262kts
08-Feb-19 19:32 38.767837 -121.517739 169 8418ft 269kts
08-Feb-19 19:33 38.694165 -121.505770 179 11945ft 279kts
08-Feb-19 19:34 38.609407 -121.515939 190 14202ft 324kts
08-Feb-19 19:35 38.520210 -121.539610 191 17000ft 336kts
08-Feb-19 19:36 38.431367 -121.531139 145 19001ft 360kts
08-Feb-19 19:37 38.369130 -121.424734 127 20049ft 375kts
08-Feb-19 19:38 38.302984 -121.327581 138 22016ft 379kts
08-Feb-19 19:39 38.228370 -121.230190 137 23885ft 385kts
08-Feb-19 19:40 38.157091 -121.123846 132 25200ft 402kts
08-Feb-19 19:41 38.082964 -121.016151 148 26362ft 405kts
08-Feb-19 19:42 37.983356 -120.955762 170 27500ft 400kts
08-Feb-19 19:43 37.880260 -120.911405 167 28557ft 410kts
08-Feb-19 19:44 37.773500 -120.864709 169 29052ft 419kts
08-Feb-19 19:45 37.662666 -120.816314 168 29060ft 426kts
08-Feb-19 19:46 37.549993 -120.766956 168 29057ft 428kts
08-Feb-19 19:47 37.438110 -120.717148 168 29056ft 421kts
08-Feb-19 19:48 37.328466 -120.667416 168 29057ft 419kts
08-Feb-19 19:49 37.221732 -120.619322 169 29057ft 417kts
08-Feb-19 19:50 37.111786 -120.570440 169 29056ft 418kts
08-Feb-19 19:51 37.001409 -120.522953 171 29058ft 422kts
08-Feb-19 19:52 36.895886 -120.479712 171 29058ft 427kts
08-Feb-19 19:53 36.780143 -120.431202 171 29066ft 428kts
08-Feb-19 19:54 36.668117 -120.382700 171 29066ft 427kts
08-Feb-19 19:55 36.556141 -120.333075 172 29045ft 424kts
08-Feb-19 19:56 36.448794 -120.287522 174 29039ft 418kts
08-Feb-19 19:57 36.337675 -120.245127 175 29039ft 414kts
08-Feb-19 19:58 36.227396 -120.204760 176 29041ft 414kts
08-Feb-19 19:59 36.116482 -120.164731 175 29041ft 419kts
08-Feb-19 20:00 36.005806 -120.119699 174 29043ft 421kts
08-Feb-19 20:01 35.898662 -120.075881 174 29038ft 421kts
08-Feb-19 20:02 35.798126 -120.035993 175 29044ft 420kts
08-Feb-19 20:03 35.686781 -119.992075 167 29034ft 433kts
08-Feb-19 20:04 35.586156 -119.903142 155 29048ft 453kts
08-Feb-19 20:05 35.482423 -119.817692 161 29050ft 443kts
08-Feb-19 20:06 35.379596 -119.739379 158 27181ft 436kts
08-Feb-19 20:07 35.283440 -119.656704 156 25075ft 429kts
08-Feb-19 20:08 35.187408 -119.576586 157 24057ft 406kts
08-Feb-19 20:09 35.109751 -119.512070 157 23916ft 407kts
08-Feb-19 20:10 35.017332 -119.437798 156 20682ft 393kts
08-Feb-19 20:11 34.936605 -119.375177 154 18026ft 376kts
08-Feb-19 20:12 34.869110 -119.322145 155 15482ft 366kts
08-Feb-19 20:13 34.785779 -119.255695 151 12384ft 353kts
08-Feb-19 20:14 34.710198 -119.184388 143 10996ft 327kts
08-Feb-19 20:15 34.659431 -119.128743 146 11006ft 292kts
08-Feb-19 20:16 34.593756 -119.068154 152 11002ft 297kts
08-Feb-19 20:17 34.525084 -119.015719 155 10305ft 285kts
08-Feb-19 20:18 34.467233 -118.949796 131 9114ft 286kts
08-Feb-19 20:19 34.418426 -118.876206 131 8014ft 279kts
08-Feb-19 20:20 34.370249 -118.804648 131 7015ft 269kts
08-Feb-19 20:21 34.324185 -118.736918 131 6105ft 266kts
08-Feb-19 20:22 34.278861 -118.671206 131 5070ft 261kts
08-Feb-19 20:23 34.233582 -118.606457 131 4401ft 242kts
08-Feb-19 20:24 34.204273 -118.554309 102 3852ft 217kts
08-Feb-19 20:25 34.199125 -118.489816 91 2912ft 162kts
08-Feb-19 20:26 34.198858 -118.442817 88 1952ft 136kts
08-Feb-19 20:27 34.198316 -118.397664 91 1251ft 131kts
08-Feb-19 20:28 34.197763 -118.357127 90 785ft 71kts
08-Feb-19 20:29 34.197623 -118.350756 121 785ft 7kts
08-Feb-19 20:30 34.196796 -118.350622 180 785ft 0kts
08-Feb-19 20:31 34.196796 -118.350622 180 785ft 0kts

Navigation Log

Ident Type
Flight plan parsing failed, navigation log unavailable